createdAt,value
2023-02-28T00:00:49.780Z,60.74
2023-02-28T00:03:52.629Z,60.21
2023-02-28T00:06:55.808Z,60.47
2023-02-28T00:09:59.441Z,60.26
2023-02-28T00:13:07.544Z,61.87
2023-02-28T00:16:12.889Z,60.82
2023-02-28T00:19:15.631Z,61.17
2023-02-28T00:22:20.465Z,61.33
2023-02-28T00:25:25.664Z,62.29
2023-02-28T00:28:29.235Z,61.02
2023-02-28T00:31:32.477Z,61.63
2023-02-28T00:34:38.730Z,61.07
2023-02-28T00:37:42.498Z,61.19
2023-02-28T00:40:45.805Z,61.09
2023-02-28T00:43:48.958Z,60.83
2023-02-28T00:46:52.779Z,60.47
2023-02-28T00:49:55.672Z,60.70
2023-02-28T00:52:58.484Z,59.99
2023-02-28T00:56:01.978Z,59.52
2023-02-28T00:59:05.103Z,59.79
2023-02-28T01:02:08.331Z,59.58
2023-02-28T01:05:14.217Z,57.96
2023-02-28T01:08:17.115Z,60.20
2023-02-28T01:11:20.705Z,59.32
2023-02-28T01:14:23.614Z,58.85
2023-02-28T01:17:27.517Z,56.41
2023-02-28T01:20:30.442Z,57.39
2023-02-28T01:23:33.981Z,57.37
2023-02-28T01:26:37.059Z,58.49
2023-02-28T01:29:43.988Z,58.40
2023-02-28T01:32:47.078Z,59.11
2023-02-28T01:35:50.117Z,58.41
2023-02-28T01:38:53.552Z,58.61
2023-02-28T01:41:57.447Z,58.19
2023-02-28T01:45:03.284Z,58.66
2023-02-28T01:48:10.223Z,58.36
2023-02-28T01:51:18.279Z,58.18
2023-02-28T01:54:30.627Z,58.31
2023-02-28T01:57:38.859Z,57.74
2023-02-28T02:00:43.739Z,58.14
2023-02-28T02:03:47.136Z,57.77
2023-02-28T02:06:50.808Z,56.71
2023-02-28T02:10:15.774Z,58.08
2023-02-28T02:13:39.960Z,58.21
2023-02-28T02:16:55.004Z,57.69
2023-02-28T02:20:29.116Z,56.56
2023-02-28T02:23:45.763Z,56.50
2023-02-28T02:27:07.152Z,56.58
2023-02-28T02:30:19.301Z,56.73
2023-02-28T02:33:46.740Z,56.46
2023-02-28T02:36:53.262Z,57.91
2023-02-28T02:40:06.349Z,57.93
2023-02-28T02:43:46.605Z,57.09
2023-02-28T02:46:54.420Z,56.86
2023-02-28T02:50:00.645Z,58.43
2023-02-28T02:53:06.823Z,56.76
2023-02-28T02:56:11.824Z,58.05
2023-02-28T02:59:22.202Z,57.42
2023-02-28T03:02:27.071Z,57.74
2023-02-28T03:05:47.108Z,58.27
2023-02-28T03:08:50.773Z,58.41
2023-02-28T03:11:57.520Z,58.43
2023-02-28T03:15:25.211Z,58.07
2023-02-28T03:19:00.385Z,58.07
2023-02-28T03:22:09.626Z,58.13
2023-02-28T03:25:30.908Z,57.95
2023-02-28T03:28:37.646Z,58.20
2023-02-28T03:31:55.641Z,58.78
2023-02-28T03:35:11.045Z,58.87
2023-02-28T03:38:16.777Z,58.57
2023-02-28T03:41:36.509Z,58.49
2023-02-28T03:44:44.341Z,59.19
2023-02-28T03:48:03.940Z,59.15
2023-02-28T03:51:10.419Z,59.01
2023-02-28T03:54:18.361Z,58.65
2023-02-28T03:57:57.809Z,59.47
2023-02-28T04:01:10.753Z,58.73
2023-02-28T04:04:15.372Z,58.52
2023-02-28T04:07:18.603Z,59.02
2023-02-28T04:10:21.566Z,58.93
2023-02-28T04:13:24.936Z,58.66
2023-02-28T04:16:34.948Z,58.92
2023-02-28T04:19:38.863Z,59.40
2023-02-28T04:22:41.659Z,59.44
2023-02-28T04:25:44.765Z,58.86
2023-02-28T04:28:47.816Z,59.16
2023-02-28T04:31:53.918Z,59.05
2023-02-28T04:34:57.165Z,60.00
2023-02-28T04:37:59.855Z,59.64
2023-02-28T04:41:03.110Z,58.74
2023-02-28T04:44:05.849Z,59.13
2023-02-28T04:47:09.070Z,59.23
2023-02-28T04:50:12.363Z,56.94
2023-02-28T04:53:15.653Z,57.08
2023-02-28T04:56:19.225Z,57.57
2023-02-28T04:59:22.298Z,56.57
2023-02-28T05:02:25.557Z,56.57
2023-02-28T05:05:29.079Z,58.44
2023-02-28T05:08:32.304Z,56.22
2023-02-28T05:11:36.293Z,57.72
2023-02-28T05:14:39.412Z,57.64
2023-02-28T05:17:42.822Z,56.44
2023-02-28T05:20:46.261Z,56.32
2023-02-28T05:23:49.110Z,56.74
2023-02-28T05:26:54.220Z,55.98
2023-02-28T05:29:57.451Z,55.89
2023-02-28T05:33:01.022Z,56.31
2023-02-28T05:36:05.643Z,56.41
2023-02-28T05:39:13.533Z,56.94
2023-02-28T05:42:16.387Z,56.42
2023-02-28T05:45:19.273Z,55.72
2023-02-28T05:48:22.077Z,56.23
2023-02-28T05:51:24.936Z,56.16
2023-02-28T05:54:27.709Z,56.29
2023-02-28T05:57:30.761Z,56.45
2023-02-28T06:00:33.924Z,57.11
2023-02-28T06:03:37.103Z,58.08
2023-02-28T06:06:40.425Z,56.41
2023-02-28T06:09:43.267Z,56.72
2023-02-28T06:12:46.401Z,57.56
2023-02-28T06:15:49.204Z,57.34
2023-02-28T06:18:53.691Z,56.75
2023-02-28T06:21:58.027Z,56.59
2023-02-28T06:25:00.918Z,57.18
2023-02-28T06:28:04.097Z,56.81
2023-02-28T06:31:11.830Z,57.04
2023-02-28T06:34:15.263Z,56.00
2023-02-28T06:37:19.204Z,56.57
2023-02-28T06:40:22.318Z,56.72
2023-02-28T06:43:27.329Z,56.99
2023-02-28T06:46:30.289Z,56.81
2023-02-28T06:49:35.617Z,57.44
2023-02-28T06:52:38.808Z,57.53
2023-02-28T06:55:42.358Z,57.35
2023-02-28T06:58:53.492Z,55.99
2023-02-28T07:01:56.582Z,55.49
2023-02-28T07:04:59.695Z,56.67
2023-02-28T07:08:04.249Z,56.38
2023-02-28T07:11:07.250Z,56.77
2023-02-28T07:14:10.481Z,57.08
2023-02-28T07:17:13.499Z,56.52
2023-02-28T07:20:16.970Z,56.68
2023-02-28T07:23:20.522Z,56.42
2023-02-28T07:26:23.627Z,56.39
2023-02-28T07:29:27.050Z,55.60
2023-02-28T07:32:30.378Z,55.58
2023-02-28T07:35:33.970Z,56.05
2023-02-28T07:38:38.476Z,55.67
2023-02-28T07:41:44.692Z,55.62
2023-02-28T07:44:47.931Z,54.37
2023-02-28T07:47:51.154Z,54.26
2023-02-28T07:50:58.690Z,52.82
2023-02-28T07:54:04.562Z,53.68
2023-02-28T07:57:07.894Z,52.76
2023-02-28T08:00:12.353Z,51.47
2023-02-28T08:03:22.393Z,52.00
2023-02-28T08:06:27.500Z,51.54
2023-02-28T08:09:31.432Z,51.77
2023-02-28T08:12:34.528Z,49.66
2023-02-28T08:15:37.660Z,48.69
2023-02-28T08:19:04.915Z,47.91
2023-02-28T08:22:08.770Z,46.63
2023-02-28T08:25:12.054Z,45.35
2023-02-28T08:28:15.049Z,44.96
2023-02-28T08:31:18.557Z,44.84
2023-02-28T08:34:21.565Z,44.18
2023-02-28T08:37:24.837Z,46.78
2023-02-28T08:40:33.046Z,44.58
2023-02-28T08:43:36.980Z,45.06
2023-02-28T08:46:40.444Z,44.04
2023-02-28T08:49:43.451Z,44.00
2023-02-28T08:52:47.486Z,42.78
2023-02-28T08:55:59.481Z,43.22
2023-02-28T08:59:03.157Z,43.54
2023-02-28T09:02:06.263Z,42.60
2023-02-28T09:05:10.116Z,42.57
2023-02-28T09:08:13.377Z,42.44
2023-02-28T09:11:17.197Z,41.65
2023-02-28T09:14:21.419Z,41.41
2023-02-28T09:17:24.594Z,41.28
2023-02-28T09:20:34.600Z,43.00
2023-02-28T09:23:39.313Z,42.06
2023-02-28T09:30:01.735Z,41.44
2023-02-28T09:33:07.216Z,41.73
2023-02-28T09:36:10.332Z,42.83
2023-02-28T09:39:16.407Z,41.59
2023-02-28T09:42:31.811Z,42.17
2023-02-28T09:45:48.580Z,40.96
2023-02-28T09:48:59.270Z,40.97
2023-02-28T09:52:06.590Z,40.83
2023-02-28T09:55:46.678Z,39.84
2023-02-28T09:59:16.803Z,38.92
2023-02-28T10:02:44.893Z,39.54
2023-02-28T10:06:00.329Z,40.31
2023-02-28T10:09:26.130Z,39.94
2023-02-28T10:12:33.136Z,40.07
2023-02-28T10:15:40.353Z,38.90
2023-02-28T10:19:05.607Z,38.94
2023-02-28T10:22:28.307Z,39.26
2023-02-28T10:25:32.730Z,39.99
2023-02-28T10:28:46.717Z,39.14
2023-02-28T10:31:54.706Z,39.83
2023-02-28T10:35:10.132Z,38.63
2023-02-28T10:38:22.436Z,39.42
2023-02-28T10:41:36.495Z,39.47
2023-02-28T10:47:57.981Z,38.11
2023-02-28T10:51:01.621Z,37.96
2023-02-28T10:54:06.301Z,38.54
2023-02-28T10:57:28.248Z,38.61
2023-02-28T11:00:37.267Z,38.25
2023-02-28T11:03:40.574Z,38.19
2023-02-28T11:06:43.782Z,37.32
2023-02-28T11:09:51.218Z,38.50
2023-02-28T11:13:00.961Z,38.25
2023-02-28T11:16:13.468Z,37.77
2023-02-28T11:19:26.357Z,38.70
2023-02-28T11:22:40.029Z,37.48
2023-02-28T11:26:01.003Z,38.35
2023-02-28T11:29:12.155Z,39.47
2023-02-28T11:32:23.258Z,39.38
2023-02-28T11:35:35.698Z,39.86
2023-02-28T11:38:39.612Z,40.69
2023-02-28T11:42:09.393Z,39.85
2023-02-28T11:45:29.237Z,40.45
2023-02-28T11:48:41.560Z,39.59
2023-02-28T11:51:51.186Z,40.93
2023-02-28T11:55:23.428Z,38.68
2023-02-28T11:58:43.696Z,38.25
2023-02-28T12:02:22.794Z,39.01
2023-02-28T12:05:56.069Z,39.40
2023-02-28T12:09:56.952Z,40.08
2023-02-28T12:13:16.821Z,38.35
2023-02-28T12:16:49.382Z,37.93
2023-02-28T12:20:42.108Z,38.86
2023-02-28T12:24:29.315Z,41.35
2023-02-28T12:27:47.384Z,40.39
2023-02-28T12:31:02.319Z,41.30
2023-02-28T12:34:17.338Z,41.27
2023-02-28T12:37:31.318Z,42.23
2023-02-28T12:40:59.257Z,43.00
2023-02-28T12:44:13.427Z,41.15
2023-02-28T12:47:19.329Z,42.47
2023-02-28T12:50:32.328Z,41.85
2023-02-28T12:54:06.142Z,41.55
2023-02-28T12:57:40.066Z,42.59
2023-02-28T13:01:24.053Z,42.32
2023-02-28T13:04:54.894Z,42.21
2023-02-28T13:08:38.947Z,41.56
2023-02-28T13:12:00.267Z,43.78
2023-02-28T13:15:48.104Z,43.36
2023-02-28T13:18:51.624Z,44.68
2023-02-28T13:21:56.522Z,42.35
2023-02-28T13:25:00.096Z,42.72
2023-02-28T13:28:09.684Z,42.23
2023-02-28T13:31:12.729Z,44.00
2023-02-28T13:34:17.838Z,42.93
2023-02-28T13:37:26.742Z,42.92
2023-02-28T13:40:38.248Z,42.89
2023-02-28T13:44:02.357Z,43.59
2023-02-28T13:47:05.400Z,43.80
2023-02-28T13:50:26.885Z,42.77
2023-02-28T13:53:39.002Z,43.52
2023-02-28T13:56:55.346Z,43.88
2023-02-28T14:00:18.135Z,45.15
2023-02-28T14:03:52.214Z,45.35
2023-02-28T14:06:56.577Z,45.62
2023-02-28T14:10:09.286Z,45.40
2023-02-28T14:13:38.593Z,47.24
2023-02-28T14:16:51.304Z,48.33
2023-02-28T14:19:54.674Z,47.04
2023-02-28T14:23:04.184Z,48.49
2023-02-28T14:26:15.953Z,47.68
2023-02-28T14:29:56.279Z,47.71
2023-02-28T14:33:19.943Z,48.82
2023-02-28T14:36:27.531Z,48.75
2023-02-28T14:39:32.336Z,48.30
2023-02-28T14:42:39.257Z,48.73
2023-02-28T14:45:42.559Z,48.55
2023-02-28T14:48:51.266Z,49.56
2023-02-28T14:52:13.955Z,49.14
2023-02-28T14:55:21.016Z,48.91
2023-02-28T14:58:30.315Z,48.93
2023-02-28T15:01:34.750Z,49.12
2023-02-28T15:04:38.548Z,47.98
2023-02-28T15:07:41.846Z,48.76
2023-02-28T15:11:03.799Z,49.11
2023-02-28T15:14:07.149Z,48.55
2023-02-28T15:17:22.807Z,49.25
2023-02-28T15:20:27.509Z,48.52
2023-02-28T15:23:32.454Z,49.31
2023-02-28T15:26:44.196Z,48.88
2023-02-28T15:29:51.987Z,48.99
2023-02-28T15:33:20.391Z,48.74
2023-02-28T15:36:29.041Z,50.10
2023-02-28T15:39:41.947Z,50.94
2023-02-28T15:43:00.110Z,49.83
2023-02-28T15:46:10.919Z,50.17
2023-02-28T15:49:20.596Z,50.44
2023-02-28T15:52:39.468Z,50.64
2023-02-28T15:55:42.664Z,51.46
2023-02-28T15:58:45.772Z,51.35
2023-02-28T16:02:02.879Z,52.18
2023-02-28T16:05:12.004Z,52.06
2023-02-28T16:08:19.067Z,51.52
2023-02-28T16:11:23.257Z,51.92
2023-02-28T16:14:31.071Z,52.83
2023-02-28T16:17:39.866Z,54.15
2023-02-28T16:20:45.576Z,51.67
2023-02-28T16:23:48.749Z,53.16
2023-02-28T16:26:55.144Z,54.42
2023-02-28T16:29:58.414Z,53.07
2023-02-28T16:33:01.478Z,54.90
2023-02-28T16:36:05.170Z,55.04
2023-02-28T16:39:08.027Z,55.37
2023-02-28T16:42:26.290Z,54.41
2023-02-28T16:45:30.425Z,55.12
2023-02-28T16:48:33.356Z,55.43
2023-02-28T16:51:36.799Z,55.54
2023-02-28T16:54:42.034Z,56.55
2023-02-28T16:57:57.540Z,56.73
2023-02-28T17:01:00.581Z,56.01
2023-02-28T17:04:04.175Z,56.15
2023-02-28T17:07:13.705Z,56.62
2023-02-28T17:10:23.542Z,55.94
2023-02-28T17:13:26.743Z,56.50
2023-02-28T17:16:33.715Z,55.60
2023-02-28T17:19:37.191Z,56.17
2023-02-28T17:22:40.960Z,55.92
2023-02-28T17:25:55.737Z,56.47
2023-02-28T17:29:00.485Z,55.87
2023-02-28T17:32:15.985Z,56.85
2023-02-28T17:35:20.716Z,57.37
2023-02-28T17:38:24.105Z,57.32
2023-02-28T17:41:31.410Z,58.07
2023-02-28T17:44:34.134Z,57.51
2023-02-28T17:47:37.842Z,57.60
2023-02-28T17:50:41.369Z,56.85
2023-02-28T17:53:44.963Z,57.42
2023-02-28T17:56:48.101Z,58.19
2023-02-28T17:59:51.083Z,58.10
2023-02-28T18:02:54.111Z,58.19
2023-02-28T18:05:58.020Z,56.84
2023-02-28T18:09:01.194Z,57.67
2023-02-28T18:12:04.325Z,56.28
2023-02-28T18:15:07.698Z,56.16
2023-02-28T18:18:10.887Z,56.66
2023-02-28T18:21:16.416Z,56.92
2023-02-28T18:24:21.756Z,56.48
2023-02-28T18:27:25.308Z,56.64
2023-02-28T18:30:31.786Z,57.74
2023-02-28T18:33:36.182Z,58.29
2023-02-28T18:36:40.305Z,58.00
2023-02-28T18:39:43.384Z,57.44
2023-02-28T18:42:46.365Z,57.39
2023-02-28T18:45:49.318Z,57.48
2023-02-28T18:48:52.192Z,57.63
2023-02-28T18:51:57.004Z,56.06
2023-02-28T18:55:00.271Z,57.18
2023-02-28T18:58:04.365Z,57.67
2023-02-28T19:01:15.402Z,57.98
2023-02-28T19:04:18.898Z,58.92
2023-02-28T19:07:22.308Z,58.53
2023-02-28T19:10:28.472Z,58.04
2023-02-28T19:13:32.070Z,58.36
2023-02-28T19:16:36.169Z,58.52
2023-02-28T19:19:39.202Z,59.08
2023-02-28T19:22:42.812Z,57.94
2023-02-28T19:25:45.781Z,57.29
2023-02-28T19:28:49.088Z,57.72
2023-02-28T19:31:53.565Z,57.48
2023-02-28T19:34:56.809Z,58.79
2023-02-28T19:38:00.709Z,57.39
2023-02-28T19:41:06.618Z,57.74
2023-02-28T19:44:09.801Z,57.06
2023-02-28T19:47:13.235Z,58.92
2023-02-28T19:50:16.892Z,58.33
2023-02-28T19:53:20.421Z,56.88
2023-02-28T19:56:23.794Z,58.24
2023-02-28T19:59:39.435Z,59.74
2023-02-28T20:02:44.222Z,57.82
2023-02-28T20:05:48.244Z,58.12
2023-02-28T20:08:54.866Z,58.51
2023-02-28T20:12:02.553Z,58.15
2023-02-28T20:15:06.396Z,58.80
2023-02-28T20:18:09.328Z,60.16
2023-02-28T20:21:13.939Z,58.77
2023-02-28T20:24:17.889Z,58.86
2023-02-28T20:27:21.079Z,59.68
2023-02-28T20:30:24.251Z,57.96
2023-02-28T20:33:27.922Z,58.84
2023-02-28T20:36:31.733Z,57.90
2023-02-28T20:39:35.453Z,59.56
2023-02-28T20:42:38.726Z,58.55
2023-02-28T20:45:51.390Z,59.79
2023-02-28T20:48:54.577Z,57.87
2023-02-28T20:51:58.164Z,59.79
2023-02-28T20:55:01.443Z,59.58
2023-02-28T20:58:04.884Z,60.59
2023-02-28T21:01:17.430Z,61.10
2023-02-28T21:04:20.645Z,59.84
2023-02-28T21:07:25.198Z,60.51
2023-02-28T21:10:28.443Z,60.40
2023-02-28T21:13:32.069Z,60.14
2023-02-28T21:16:37.798Z,61.03
2023-02-28T21:19:41.620Z,60.58
2023-02-28T21:22:44.919Z,60.53
2023-02-28T21:25:47.790Z,60.92
2023-02-28T21:28:57.175Z,60.79
2023-02-28T21:32:02.216Z,61.64
2023-02-28T21:35:06.296Z,61.80
2023-02-28T21:38:09.687Z,62.35
2023-02-28T21:41:18.062Z,61.47
2023-02-28T21:44:22.730Z,61.24
2023-02-28T21:47:25.905Z,61.62
2023-02-28T21:50:29.417Z,61.32
2023-02-28T21:53:34.032Z,61.44
2023-02-28T21:56:37.680Z,61.60
2023-02-28T21:59:40.807Z,61.53
2023-02-28T22:02:43.997Z,62.05
2023-02-28T22:05:47.183Z,61.73
2023-02-28T22:08:54.145Z,61.88
2023-02-28T22:11:58.398Z,61.71
2023-02-28T22:15:01.675Z,61.49
2023-02-28T22:18:05.831Z,61.78
2023-02-28T22:21:11.182Z,61.63
2023-02-28T22:24:15.041Z,61.81
2023-02-28T22:27:17.960Z,61.28
2023-02-28T22:30:21.943Z,61.41
2023-02-28T22:33:27.202Z,61.30
2023-02-28T22:36:30.782Z,60.42
2023-02-28T22:39:34.262Z,60.46
2023-02-28T22:42:37.592Z,60.03
2023-02-28T22:45:41.552Z,60.17
2023-02-28T22:48:44.613Z,60.47
2023-02-28T22:51:47.565Z,59.79
2023-02-28T22:54:51.892Z,59.90
2023-02-28T22:57:55.150Z,60.86
2023-02-28T23:01:15.329Z,60.12
2023-02-28T23:04:19.156Z,60.11
2023-02-28T23:07:22.215Z,60.25
2023-02-28T23:10:25.535Z,60.48
2023-02-28T23:13:28.673Z,61.03
2023-02-28T23:16:33.244Z,61.21
2023-02-28T23:19:37.269Z,62.21
2023-02-28T23:22:40.528Z,62.01
2023-02-28T23:25:43.911Z,62.41
2023-02-28T23:28:47.174Z,62.86
2023-02-28T23:31:50.522Z,62.10
2023-02-28T23:34:55.094Z,61.95
2023-02-28T23:37:58.984Z,60.94
2023-02-28T23:41:02.076Z,60.50
2023-02-28T23:44:05.549Z,61.70
2023-02-28T23:47:08.742Z,62.46
2023-02-28T23:50:12.030Z,61.83
2023-02-28T23:53:17.779Z,61.64
2023-02-28T23:56:23.834Z,62.48
2023-02-28T23:59:27.404Z,63.38
